createdAt,value
2023-05-13T00:02:09.801Z,8.40
2023-05-13T00:04:39.861Z,9.10
2023-05-13T00:07:10.037Z,8.10
2023-05-13T00:09:40.370Z,5.00
2023-05-13T00:12:11.083Z,7.60
2023-05-13T00:14:41.343Z,9.80
2023-05-13T00:17:11.425Z,4.30
2023-05-13T00:19:41.664Z,7.00
2023-05-13T00:22:11.922Z,8.80
2023-05-13T00:24:42.242Z,8.60
2023-05-13T00:27:12.900Z,7.30
2023-05-13T00:29:42.800Z,6.90
2023-05-13T00:32:12.932Z,8.60
2023-05-13T00:34:43.137Z,6.40
2023-05-13T00:37:13.909Z,6.80
2023-05-13T00:39:44.138Z,12.90
2023-05-13T00:42:14.912Z,6.60
2023-05-13T00:44:45.008Z,8.10
2023-05-13T00:47:15.329Z,7.70
2023-05-13T00:49:45.464Z,6.10
2023-05-13T00:52:15.524Z,8.30
2023-05-13T00:54:45.678Z,7.70
2023-05-13T00:57:16.025Z,6.70
2023-05-13T00:59:46.005Z,8.80
2023-05-13T01:02:22.139Z,7.30
2023-05-13T01:05:05.920Z,7.20
2023-05-13T01:07:44.816Z,7.60
2023-05-13T01:10:21.254Z,9.30
2023-05-13T01:12:58.222Z,7.20
2023-05-13T01:15:29.571Z,6.90
2023-05-13T01:18:06.202Z,7.60
2023-05-13T01:20:38.439Z,7.70
2023-05-13T01:23:08.558Z,8.10
2023-05-13T01:25:39.361Z,8.80
2023-05-13T01:28:10.158Z,6.60
2023-05-13T01:30:40.917Z,8.80
2023-05-13T01:33:12.677Z,6.10
2023-05-13T01:35:43.756Z,7.10
2023-05-13T01:38:15.724Z,8.30
2023-05-13T01:40:48.934Z,9.50
2023-05-13T01:43:18.995Z,5.60
2023-05-13T01:45:51.357Z,5.90
2023-05-13T01:48:21.861Z,6.90
2023-05-13T01:50:52.738Z,7.80
2023-05-13T01:53:23.035Z,9.80
2023-05-13T01:55:54.677Z,8.20
2023-05-13T01:58:24.901Z,8.40
2023-05-13T02:00:55.003Z,10.70
2023-05-13T02:03:25.224Z,9.00
2023-05-13T02:05:56.059Z,7.30
2023-05-13T02:08:27.468Z,7.30
2023-05-13T02:10:58.137Z,6.70
2023-05-13T02:13:28.263Z,8.70
2023-05-13T02:15:58.421Z,7.30
2023-05-13T02:18:28.603Z,10.50
2023-05-13T02:20:58.718Z,7.00
2023-05-13T02:23:29.009Z,9.00
2023-05-13T02:25:59.134Z,9.50
2023-05-13T02:28:30.900Z,6.00
2023-05-13T02:31:01.187Z,7.30
2023-05-13T02:33:31.821Z,6.60
2023-05-13T02:36:02.420Z,7.60
2023-05-13T02:38:32.807Z,9.40
2023-05-13T02:41:04.243Z,8.70
2023-05-13T02:43:34.622Z,9.40
2023-05-13T02:46:06.072Z,7.40
2023-05-13T02:48:36.405Z,10.80
2023-05-13T02:51:06.799Z,10.80
2023-05-13T02:53:37.024Z,11.70
2023-05-13T02:56:08.529Z,7.60
2023-05-13T02:58:39.809Z,10.80
2023-05-13T03:01:09.990Z,10.40
2023-05-13T03:03:40.428Z,7.50
2023-05-13T03:06:11.471Z,7.20
2023-05-13T03:08:41.564Z,9.70
2023-05-13T03:11:11.492Z,8.70
2023-05-13T03:13:43.049Z,10.30
2023-05-13T03:16:13.206Z,9.20
2023-05-13T03:18:43.513Z,9.80
2023-05-13T03:21:13.616Z,9.90
2023-05-13T03:23:45.102Z,8.50
2023-05-13T03:26:15.128Z,9.10
2023-05-13T03:28:45.300Z,7.30
2023-05-13T03:31:15.961Z,8.20
2023-05-13T03:33:46.847Z,8.90
2023-05-13T03:36:16.876Z,10.00
2023-05-13T03:38:47.226Z,9.80
2023-05-13T03:41:17.780Z,8.30
2023-05-13T03:43:48.785Z,8.10
2023-05-13T03:46:19.596Z,7.60
2023-05-13T03:48:50.978Z,7.80
2023-05-13T03:51:21.306Z,7.20
2023-05-13T03:53:51.449Z,9.10
2023-05-13T03:56:21.926Z,7.10
2023-05-13T03:58:52.088Z,8.10
2023-05-13T04:01:22.762Z,8.30
2023-05-13T04:03:53.001Z,10.50
2023-05-13T04:06:23.201Z,9.20
2023-05-13T04:08:53.761Z,8.00
2023-05-13T04:11:23.978Z,10.80
2023-05-13T04:13:54.432Z,9.70
2023-05-13T04:16:25.351Z,9.30
2023-05-13T04:18:55.538Z,7.30
2023-05-13T04:21:25.667Z,11.60
2023-05-13T04:23:55.840Z,9.20
2023-05-13T04:26:25.882Z,8.70
2023-05-13T04:28:55.968Z,8.10
2023-05-13T04:31:26.439Z,7.60
2023-05-13T04:33:57.197Z,7.00
2023-05-13T04:36:29.728Z,7.80
2023-05-13T04:39:00.242Z,7.80
2023-05-13T04:41:31.314Z,6.20
2023-05-13T04:44:02.264Z,9.40
2023-05-13T04:46:33.077Z,7.40
2023-05-13T04:49:03.099Z,8.10
2023-05-13T04:51:33.323Z,7.40
2023-05-13T04:54:05.472Z,8.40
2023-05-13T04:56:36.862Z,8.90
2023-05-13T04:59:06.949Z,10.90
2023-05-13T05:01:37.273Z,6.50
2023-05-13T05:04:08.004Z,7.80
2023-05-13T05:06:38.901Z,7.30
2023-05-13T05:09:09.193Z,9.10
2023-05-13T05:11:39.644Z,8.80
2023-05-13T05:14:10.479Z,8.10
2023-05-13T05:16:40.966Z,6.50
2023-05-13T05:19:12.222Z,8.70
2023-05-13T05:21:42.868Z,6.00
2023-05-13T05:24:13.682Z,8.20
2023-05-13T05:26:44.062Z,8.70
2023-05-13T05:29:14.883Z,6.40
2023-05-13T05:31:47.241Z,6.40
2023-05-13T05:34:17.925Z,8.80
2023-05-13T05:36:48.322Z,6.30
2023-05-13T05:39:19.766Z,7.70
2023-05-13T05:41:49.982Z,6.00
2023-05-13T05:44:21.085Z,7.60
2023-05-13T05:46:52.381Z,6.10
2023-05-13T05:49:22.426Z,6.20
2023-05-13T05:51:53.384Z,11.30
2023-05-13T05:54:24.784Z,9.00
2023-05-13T05:56:54.944Z,6.70
2023-05-13T05:59:25.446Z,8.50
2023-05-13T06:01:55.487Z,7.20
2023-05-13T06:04:25.637Z,6.40
2023-05-13T06:06:56.070Z,9.20
2023-05-13T06:09:26.284Z,6.40
2023-05-13T06:11:56.479Z,5.40
2023-05-13T06:14:26.742Z,8.20
2023-05-13T06:16:56.885Z,8.40
2023-05-13T06:19:27.841Z,5.40
2023-05-13T06:21:57.985Z,5.60
2023-05-13T06:24:28.383Z,8.70
2023-05-13T06:26:58.520Z,6.20
2023-05-13T06:29:28.785Z,12.80
2023-05-13T06:31:59.061Z,6.40
2023-05-13T06:34:29.020Z,4.50
2023-05-13T06:36:59.076Z,5.50
2023-05-13T06:39:29.795Z,8.50
2023-05-13T06:42:00.549Z,6.30
2023-05-13T06:44:35.001Z,5.20
2023-05-13T06:47:09.963Z,6.10
2023-05-13T06:49:41.028Z,7.10
2023-05-13T06:52:11.812Z,7.70
2023-05-13T06:54:42.106Z,5.80
2023-05-13T06:57:12.377Z,4.40
2023-05-13T06:59:42.430Z,4.80
2023-05-13T07:02:12.601Z,6.50
2023-05-13T07:04:43.079Z,6.10
2023-05-13T07:07:13.545Z,6.90
2023-05-13T07:09:43.480Z,5.70
2023-05-13T07:12:14.106Z,4.50
2023-05-13T07:14:45.066Z,6.60
2023-05-13T07:17:15.270Z,4.00
2023-05-13T07:19:45.277Z,4.50
2023-05-13T07:22:15.395Z,7.40
2023-05-13T07:24:45.750Z,5.90
2023-05-13T07:27:15.759Z,5.70
2023-05-13T07:29:45.915Z,4.30
2023-05-13T07:32:16.379Z,6.40
2023-05-13T07:34:46.374Z,4.30
2023-05-13T07:37:17.023Z,4.20
2023-05-13T07:39:48.287Z,5.80
2023-05-13T07:42:19.057Z,6.70
2023-05-13T07:44:49.197Z,4.40
2023-05-13T07:47:19.748Z,6.00
2023-05-13T07:49:50.716Z,5.90
2023-05-13T07:52:21.443Z,6.00
2023-05-13T07:54:51.558Z,5.50
2023-05-13T07:57:21.640Z,5.30
2023-05-13T07:59:52.443Z,4.80
2023-05-13T08:02:22.493Z,7.80
2023-05-13T08:04:52.782Z,6.50
2023-05-13T08:07:22.942Z,6.00
2023-05-13T08:09:53.251Z,7.80
2023-05-13T08:12:24.103Z,5.20
2023-05-13T08:14:54.340Z,7.60
2023-05-13T08:17:24.425Z,6.80
2023-05-13T08:19:54.797Z,6.00
2023-05-13T08:22:24.894Z,5.20
2023-05-13T08:24:55.117Z,4.00
2023-05-13T08:27:25.255Z,5.50
2023-05-13T08:29:55.292Z,4.80
2023-05-13T08:32:25.220Z,6.70
2023-05-13T08:34:55.908Z,3.50
2023-05-13T08:37:26.078Z,4.20
2023-05-13T08:39:59.600Z,8.10
2023-05-13T08:42:33.114Z,4.00
2023-05-13T08:45:08.158Z,5.30
2023-05-13T08:47:49.740Z,3.40
2023-05-13T08:50:23.722Z,3.80
2023-05-13T08:52:55.156Z,4.90
2023-05-13T08:55:25.318Z,3.90
2023-05-13T08:57:55.381Z,4.90
2023-05-13T09:00:26.067Z,4.30
2023-05-13T09:02:56.214Z,5.70
2023-05-13T09:05:27.571Z,7.40
2023-05-13T09:07:57.840Z,6.50
2023-05-13T09:10:28.743Z,7.10
2023-05-13T09:13:00.306Z,5.60
2023-05-13T09:15:35.034Z,4.60
2023-05-13T09:18:07.387Z,3.20
2023-05-13T09:20:39.226Z,4.30
2023-05-13T09:23:11.308Z,4.00
2023-05-13T09:25:44.523Z,5.00
2023-05-13T09:28:16.942Z,4.60
2023-05-13T09:30:57.040Z,6.20
2023-05-13T09:33:32.676Z,5.40
2023-05-13T09:36:08.042Z,4.00
2023-05-13T09:38:38.819Z,8.20
2023-05-13T09:41:11.058Z,4.20
2023-05-13T09:43:41.259Z,4.30
2023-05-13T09:46:12.477Z,3.50
2023-05-13T09:48:45.082Z,3.20
2023-05-13T09:51:16.963Z,5.40
2023-05-13T09:53:48.886Z,4.50
2023-05-13T09:56:23.639Z,3.90
2023-05-13T09:58:57.433Z,5.90
2023-05-13T10:01:29.191Z,5.50
2023-05-13T10:03:59.992Z,3.50
2023-05-13T10:06:32.005Z,2.90
2023-05-13T10:09:03.639Z,6.30
2023-05-13T10:11:40.494Z,5.30
2023-05-13T10:14:11.327Z,6.80
2023-05-13T10:16:43.422Z,8.20
2023-05-13T10:19:14.494Z,7.40
2023-05-13T10:21:45.300Z,3.40
2023-05-13T10:24:15.526Z,7.20
2023-05-13T10:26:46.583Z,5.10
2023-05-13T10:29:17.322Z,5.30
2023-05-13T10:31:49.350Z,5.30
2023-05-13T10:34:19.557Z,2.90
2023-05-13T10:37:03.567Z,7.00
2023-05-13T10:40:20.441Z,4.40
2023-05-13T10:43:00.041Z,3.60
2023-05-13T10:45:32.242Z,3.20
2023-05-13T10:48:07.571Z,2.40
2023-05-13T10:50:39.846Z,4.50
2023-05-13T10:53:24.236Z,2.70
2023-05-13T10:55:59.630Z,3.20
2023-05-13T10:58:34.516Z,3.90
2023-05-13T11:01:19.285Z,3.80
2023-05-13T11:03:56.397Z,5.80
2023-05-13T11:06:34.162Z,5.80
2023-05-13T11:09:07.692Z,3.90
2023-05-13T11:11:38.341Z,4.90
2023-05-13T11:14:17.697Z,4.40
2023-05-13T11:16:49.279Z,6.00
2023-05-13T11:19:22.995Z,5.70
2023-05-13T11:21:55.155Z,3.70
2023-05-13T11:24:26.828Z,3.50
2023-05-13T11:26:58.645Z,4.10
2023-05-13T11:29:33.939Z,7.80
2023-05-13T11:32:05.643Z,5.10
2023-05-13T11:34:36.640Z,7.00
2023-05-13T11:37:11.104Z,4.80
2023-05-13T11:39:42.019Z,5.60
2023-05-13T11:42:12.870Z,7.10
2023-05-13T11:44:49.503Z,7.20
2023-05-13T11:47:28.326Z,8.90
2023-05-13T11:49:59.297Z,4.50
2023-05-13T11:52:29.219Z,4.50
2023-05-13T11:54:59.821Z,3.00
2023-05-13T11:57:32.468Z,5.10
2023-05-13T12:00:08.507Z,5.10
2023-05-13T12:02:40.710Z,2.60
2023-05-13T12:05:12.277Z,6.60
2023-05-13T12:07:43.527Z,6.50
2023-05-13T12:10:14.060Z,3.40
2023-05-13T12:12:45.998Z,4.40
2023-05-13T12:15:21.519Z,8.10
2023-05-13T12:17:52.801Z,5.30
2023-05-13T12:20:24.602Z,5.80
2023-05-13T12:23:00.416Z,2.40
2023-05-13T12:25:41.822Z,4.20
2023-05-13T12:28:17.674Z,4.30
2023-05-13T12:30:53.101Z,4.30
2023-05-13T12:33:25.387Z,5.80
2023-05-13T12:36:14.767Z,5.70
2023-05-13T12:38:59.808Z,4.60
2023-05-13T12:41:32.149Z,4.70
2023-05-13T12:44:03.584Z,6.40
2023-05-13T12:46:34.814Z,4.60
2023-05-13T12:49:06.287Z,4.70
2023-05-13T12:51:37.301Z,3.70
2023-05-13T12:54:07.855Z,5.90
2023-05-13T12:56:39.821Z,11.20
2023-05-13T12:59:10.021Z,6.00
2023-05-13T13:01:41.878Z,8.40
2023-05-13T13:04:12.165Z,5.00
2023-05-13T13:06:42.970Z,4.30
2023-05-13T13:09:13.185Z,5.00
2023-05-13T13:11:43.410Z,21.90
2023-05-13T13:14:13.846Z,42.20
2023-05-13T13:16:44.251Z,4.10
2023-05-13T13:19:14.396Z,4.60
2023-05-13T13:21:44.645Z,8.80
2023-05-13T13:24:15.157Z,6.40
2023-05-13T13:26:45.568Z,3.00
2023-05-13T13:29:15.908Z,3.50
2023-05-13T13:31:46.561Z,4.40
2023-05-13T13:34:18.124Z,3.50
2023-05-13T13:36:48.536Z,4.50
2023-05-13T13:39:18.918Z,4.50
2023-05-13T13:41:48.821Z,2.90
2023-05-13T13:44:19.053Z,4.70
2023-05-13T13:46:49.505Z,3.10
2023-05-13T13:49:23.877Z,2.40
2023-05-13T13:51:54.886Z,4.50
2023-05-13T13:54:25.097Z,6.10
2023-05-13T13:56:55.168Z,5.00
2023-05-13T13:59:25.297Z,3.80
2023-05-13T14:01:56.422Z,3.60
2023-05-13T14:04:29.961Z,3.40
2023-05-13T14:07:00.116Z,6.00
2023-05-13T14:09:31.098Z,4.20
2023-05-13T14:12:01.198Z,3.40
2023-05-13T14:14:33.697Z,2.50
2023-05-13T14:17:04.322Z,3.40
2023-05-13T14:19:34.941Z,3.20
2023-05-13T14:22:06.548Z,4.50
2023-05-13T14:24:37.062Z,3.80
2023-05-13T14:27:07.467Z,4.00
2023-05-13T14:29:37.463Z,3.60
2023-05-13T14:32:08.624Z,3.50
2023-05-13T14:34:38.621Z,3.00
2023-05-13T14:37:08.652Z,3.10
2023-05-13T14:39:38.625Z,5.50
2023-05-13T14:42:11.345Z,4.10
2023-05-13T14:44:41.705Z,4.30
2023-05-13T14:47:12.259Z,3.20
2023-05-13T14:49:42.410Z,2.60
2023-05-13T14:52:12.809Z,3.70
2023-05-13T14:54:42.759Z,3.90
2023-05-13T14:57:12.937Z,3.70
2023-05-13T14:59:43.023Z,3.70
2023-05-13T15:02:14.028Z,3.10
2023-05-13T15:04:44.336Z,4.00
2023-05-13T15:07:14.616Z,3.60
2023-05-13T15:09:44.701Z,7.80
2023-05-13T15:12:14.884Z,5.10
2023-05-13T15:14:51.702Z,4.20
2023-05-13T15:17:22.281Z,5.50
2023-05-13T15:19:52.535Z,5.60
2023-05-13T15:22:23.197Z,4.40
2023-05-13T15:24:53.276Z,4.00
2023-05-13T15:27:23.484Z,4.60
2023-05-13T15:29:53.759Z,4.50
2023-05-13T15:32:23.851Z,4.70
2023-05-13T15:34:53.970Z,4.00
2023-05-13T15:37:24.080Z,3.20
2023-05-13T15:39:54.243Z,5.20
2023-05-13T15:42:24.481Z,6.00
2023-05-13T15:44:54.777Z,6.40
2023-05-13T15:47:25.319Z,3.70
2023-05-13T15:49:55.578Z,8.50
2023-05-13T15:52:25.925Z,5.90
2023-05-13T15:54:57.768Z,4.90
2023-05-13T15:57:28.080Z,3.30
2023-05-13T15:59:58.296Z,2.90
2023-05-13T16:02:35.708Z,3.80
2023-05-13T16:05:06.974Z,3.00
2023-05-13T16:07:37.324Z,9.90
2023-05-13T16:10:08.715Z,4.70
2023-05-13T16:12:39.474Z,3.20
2023-05-13T16:15:11.594Z,4.10
2023-05-13T16:17:42.005Z,3.50
2023-05-13T16:20:13.621Z,5.00
2023-05-13T16:22:44.067Z,3.30
2023-05-13T16:25:14.441Z,3.50
2023-05-13T16:27:44.626Z,5.60
2023-05-13T16:30:15.516Z,2.80
2023-05-13T16:32:48.604Z,3.20
2023-05-13T16:35:19.406Z,6.20
2023-05-13T16:37:49.878Z,3.80
2023-05-13T16:40:21.172Z,2.50
2023-05-13T16:42:52.360Z,4.00
2023-05-13T16:45:23.172Z,3.90
2023-05-13T16:47:54.033Z,6.60
2023-05-13T16:50:25.023Z,3.20
2023-05-13T16:52:56.659Z,5.20
2023-05-13T16:55:26.876Z,3.40
2023-05-13T16:57:57.019Z,3.90
2023-05-13T17:00:27.419Z,3.10
2023-05-13T17:02:59.928Z,3.80
2023-05-13T17:05:31.599Z,4.70
2023-05-13T17:08:01.811Z,3.90
2023-05-13T17:10:32.198Z,3.50
2023-05-13T17:13:02.501Z,2.90
2023-05-13T17:15:32.946Z,3.50
2023-05-13T17:18:03.397Z,4.40
2023-05-13T17:20:33.462Z,3.80
2023-05-13T17:23:03.827Z,6.50
2023-05-13T17:25:33.799Z,4.20
2023-05-13T17:28:07.719Z,4.90
2023-05-13T17:30:37.867Z,5.30
2023-05-13T17:33:08.198Z,7.10
2023-05-13T17:35:38.351Z,5.40
2023-05-13T17:38:08.465Z,5.30
2023-05-13T17:40:38.834Z,5.30
2023-05-13T17:43:08.987Z,7.30
2023-05-13T17:45:39.423Z,6.30
2023-05-13T17:48:10.084Z,8.80
2023-05-13T17:50:40.364Z,9.00
2023-05-13T17:53:10.760Z,6.00
2023-05-13T17:55:41.069Z,6.30
2023-05-13T17:58:12.188Z,5.70
2023-05-13T18:00:44.711Z,6.70
2023-05-13T18:03:14.781Z,8.80
2023-05-13T18:05:45.091Z,4.00
2023-05-13T18:08:15.739Z,5.90
2023-05-13T18:10:47.197Z,5.90
2023-05-13T18:13:17.242Z,5.50
2023-05-13T18:15:47.470Z,6.40
2023-05-13T18:18:18.319Z,5.30
2023-05-13T18:20:48.519Z,4.20
2023-05-13T18:23:18.835Z,6.20
2023-05-13T18:25:55.855Z,6.10
2023-05-13T18:28:27.101Z,5.90
2023-05-13T18:30:58.094Z,7.30
2023-05-13T18:33:28.781Z,7.40
2023-05-13T18:35:59.137Z,6.10
2023-05-13T18:38:29.707Z,8.80
2023-05-13T18:41:07.379Z,5.70
2023-05-13T18:43:40.908Z,7.30
2023-05-13T18:46:11.462Z,8.90
2023-05-13T18:48:41.838Z,6.80
2023-05-13T18:51:12.061Z,8.10
2023-05-13T18:53:44.904Z,7.90
2023-05-13T18:56:15.904Z,7.50
2023-05-13T18:58:52.160Z,6.90
2023-05-13T19:01:22.407Z,10.90
2023-05-13T19:03:53.016Z,8.40
2023-05-13T19:06:23.239Z,8.80
2023-05-13T19:08:53.374Z,8.10
2023-05-13T19:11:23.697Z,9.70
2023-05-13T19:13:54.276Z,7.80
2023-05-13T19:16:25.042Z,10.60
2023-05-13T19:18:55.257Z,10.50
2023-05-13T19:21:25.519Z,12.00
2023-05-13T19:23:55.757Z,16.50
2023-05-13T19:26:26.378Z,9.50
2023-05-13T19:28:57.060Z,10.70
2023-05-13T19:31:27.442Z,10.80
2023-05-13T19:33:58.232Z,10.70
2023-05-13T19:36:28.668Z,11.80
2023-05-13T19:38:59.220Z,12.30
2023-05-13T19:41:40.299Z,11.70
2023-05-13T19:44:12.663Z,10.30
2023-05-13T19:46:46.834Z,11.90
2023-05-13T19:49:17.400Z,9.30
2023-05-13T19:51:47.358Z,13.60
2023-05-13T19:54:17.660Z,9.80
2023-05-13T19:56:50.735Z,12.00
2023-05-13T19:59:23.585Z,10.10
2023-05-13T20:01:56.120Z,10.80
2023-05-13T20:04:26.677Z,11.10
2023-05-13T20:06:56.840Z,9.90
2023-05-13T20:09:27.262Z,8.40
2023-05-13T20:11:58.184Z,10.30
2023-05-13T20:14:44.189Z,10.20
2023-05-13T20:17:17.123Z,8.40
2023-05-13T20:19:51.360Z,8.60
2023-05-13T20:22:27.252Z,9.60
2023-05-13T20:24:57.883Z,9.70
2023-05-13T20:27:28.286Z,9.20
2023-05-13T20:29:59.766Z,8.50
2023-05-13T20:32:29.939Z,8.90
2023-05-13T20:35:00.121Z,10.10
2023-05-13T20:37:30.600Z,11.20
2023-05-13T20:40:00.644Z,10.90
2023-05-13T20:42:30.862Z,9.90
2023-05-13T20:45:01.104Z,10.50
2023-05-13T20:47:31.426Z,10.80
2023-05-13T20:50:01.790Z,9.20
2023-05-13T20:52:32.302Z,11.90
2023-05-13T20:55:03.058Z,10.30
2023-05-13T20:57:33.380Z,11.90
2023-05-13T21:00:04.821Z,9.70
2023-05-13T21:02:35.258Z,9.70
2023-05-13T21:05:06.122Z,9.00
2023-05-13T21:07:36.942Z,8.00
2023-05-13T21:10:09.047Z,8.00
2023-05-13T21:12:39.190Z,10.00
2023-05-13T21:15:13.085Z,7.80
2023-05-13T21:17:44.708Z,9.50
2023-05-13T21:20:16.030Z,8.80
2023-05-13T21:22:46.190Z,8.50
2023-05-13T21:25:16.781Z,10.40
2023-05-13T21:27:46.838Z,10.00
2023-05-13T21:30:17.184Z,8.30
2023-05-13T21:32:47.130Z,9.10
2023-05-13T21:35:18.058Z,10.10
2023-05-13T21:37:48.784Z,8.30
2023-05-13T21:40:20.835Z,13.80
2023-05-13T21:42:50.954Z,8.70
2023-05-13T21:45:22.274Z,9.90
2023-05-13T21:47:52.247Z,10.00
2023-05-13T21:50:23.260Z,10.20
2023-05-13T21:52:53.491Z,12.80
2023-05-13T21:55:23.905Z,11.70
2023-05-13T21:57:54.044Z,8.40
2023-05-13T22:00:24.728Z,9.60
2023-05-13T22:02:56.849Z,8.20
2023-05-13T22:05:27.156Z,8.50
2023-05-13T22:07:57.048Z,9.70
2023-05-13T22:10:27.175Z,10.60
2023-05-13T22:12:57.091Z,10.80
2023-05-13T22:15:27.299Z,9.50
2023-05-13T22:17:57.782Z,8.30
2023-05-13T22:20:27.936Z,10.00
2023-05-13T22:22:58.015Z,10.60
2023-05-13T22:25:28.132Z,7.70
2023-05-13T22:27:58.257Z,10.70
2023-05-13T22:30:28.504Z,11.20
2023-05-13T22:32:58.420Z,10.20
2023-05-13T22:35:29.160Z,10.50
2023-05-13T22:37:59.101Z,10.00
2023-05-13T22:40:29.400Z,11.40
2023-05-13T22:42:59.379Z,10.50
2023-05-13T22:45:29.524Z,12.20
2023-05-13T22:47:59.527Z,10.70
2023-05-13T22:50:31.267Z,11.20
2023-05-13T22:53:01.962Z,10.60
2023-05-13T22:55:31.997Z,9.40
2023-05-13T22:58:02.161Z,9.70
2023-05-13T23:00:32.748Z,11.50
2023-05-13T23:03:03.004Z,13.20
2023-05-13T23:05:33.020Z,11.60
2023-05-13T23:08:03.117Z,10.70
2023-05-13T23:10:33.789Z,11.40
2023-05-13T23:13:05.397Z,10.80
2023-05-13T23:15:38.143Z,16.50
2023-05-13T23:18:08.703Z,13.50
2023-05-13T23:20:38.991Z,12.70
2023-05-13T23:23:09.057Z,14.30
2023-05-13T23:25:39.338Z,13.90
2023-05-13T23:28:09.296Z,13.00
2023-05-13T23:30:39.377Z,11.20
2023-05-13T23:33:09.659Z,13.70
2023-05-13T23:35:39.620Z,13.30
2023-05-13T23:38:09.797Z,11.60
2023-05-13T23:40:39.814Z,10.90
2023-05-13T23:43:09.901Z,12.00
2023-05-13T23:45:40.132Z,11.30
2023-05-13T23:48:10.957Z,12.00
2023-05-13T23:50:42.698Z,10.50
2023-05-13T23:53:12.961Z,10.60
2023-05-13T23:55:43.186Z,14.50
2023-05-13T23:58:13.218Z,11.90
